Melbourne International Airport Melbourne US
ICAO: KMLB
IATA: MLB
Category: Medium
Scheduled Services: Yes

Elevation: 33 ft
TransAlt. 18000 ft.

Airport Communications:
ORLANDO APP/DEP:132.65
ATIS:132.55
CLNC DEL:121.9
CTAF:118.2
GND:121.9
GRUMMAN OPS:123.2
ST PETERSBURG RDO:122.6
TWR:118.2
UNICOM:122.95

KMLB Zoom In..

If you have problems with the map follow the link
https://www.worldairports.se/pages/airport.php?
ICAO=KMLB

Runways:

(A) RW 05 length 3001 ft width 75 ft
---- / hdg 49

(B) RW 09L length 6000 ft width 150 ft
---- / hdg 94

(C) RW 09R length 10181 ft width 150 ft
ILS 108.30 / hdg 94

(D) RW 23 length 3001 ft width 75 ft
---- / hdg 229

(E) RW 27L length 10181 ft width 150 ft
---- / hdg 274

(F) RW 27R length 6000 ft width 150 ft
---- / hdg 274

Location; KMLB
Day. 12 / Time. 08.53 Zulu
* Altimeter: 30.20
* Temperature: 22° c. 71.6°f.
* Wind from: 340° Speed 07 kn.
Dewpoint: 21° c.
Visibility: 10 Statute Miles.
Clouds: Few 1600 ft.
Clouds: Broken 2900 ft.
Clouds: Overcast 3500 ft.

KMLB 120853Z AUTO 34007KT 10SM FEW016 BKN029 OVC035 22/21 A3020 RMK AO2 RAE10 SLP227 P0001 60025 T02170206 58008


Wind From 340°
Speed 07 kn.

 
 
jpsmedia worldairports.se 2019   terms of use